Portada
METAR-TAF:

METAR-TAF

Aeroports :

Aeroport de Bilbao

Bilbao, Espanya

latitud: 43-18N, longitud: 002-56W, altitud: 42 m

Observació

L'informe es va fer fa 20 minuts, a les 01:30 UTC
Vent 1 kt amb direcció variable
Temperatura 6°C
Humitat 87%
Pressió 1023 hPa
Visibilitat 10 km o més
Escasses núvols a una alçada de 6500 ft

METAR: LEBB 300130Z AUTO VRB01KT 9999 FEW065 06/04 Q1023

Hora: 03:50 (01:50 UTC)

Pronòstic

L'informe es va fer fa 2 hores i 50 minuts, a les 23:00 UTC
Pronòstic vàlid del 30 a les 00 UTC al 30 a les 24 UTC
Vent 9 kt del Nord
Visibilitat: 8000 m
Escasses núvols a una alçada de 1000 ft
Cel ennuvolat a una alçada de 2000 ft
Temporalment
l' 30 a les 00 UTC al 30 a les 24 UTC
pluja
Temporalment
l' 30 a les 00 UTC al 30 a les 09 UTC
Visibilitat: 3000 m
Cel ennuvolat a una alçada de 1000 ft
pluja, plugim, boirina

TAF: LEBB 292300Z 3000/3024 35009KT 8000 FEW010 BKN020 TX08/3015Z TN03/3006Z TEMPO 3000/3024 RA TEMPO 3000/3009 3000 RADZ BR BKN010

Observacions i pronòstics meteorològics de més de 4000 aeroports (METAR i TAF).

Les estacions disponibles són els punts grocs i vermells al mapa.

Posi el ratolí al punt desitjat per veure el nom de l'estació.

Feu clic per veure les observacions i els pronòstics meteorològics.

Per canviar el mapa: feu clic els botons verds amb una creu de color negre per apropar; al botó verd amb un guió per allunyar la imatge; o en les fletxes verdes per a mapes adjacents.


METAR-TAF: